createdAt,value
2018-03-08T00:01:03.554Z,5.59
2018-03-08T00:06:03.812Z,5.39
2018-03-08T00:11:03.467Z,5.59
2018-03-08T00:16:03.754Z,5.29
2018-03-08T00:21:03.506Z,5.09
2018-03-08T00:26:03.441Z,5.19
2018-03-08T00:31:05.227Z,5.39
2018-03-08T00:36:04.174Z,5.49
2018-03-08T00:41:03.759Z,5.49
2018-03-08T00:46:03.988Z,5.59
2018-03-08T00:51:03.445Z,5.59
2018-03-08T00:56:03.667Z,5.59
2018-03-08T01:01:03.951Z,5.49
2018-03-08T01:06:03.380Z,5.49
2018-03-08T01:11:03.984Z,5.59
2018-03-08T01:16:03.270Z,5.59
2018-03-08T01:21:03.744Z,5.69
2018-03-08T01:26:03.964Z,5.59
2018-03-08T01:31:03.261Z,5.69
2018-03-08T01:36:03.712Z,5.59
2018-03-08T01:41:03.309Z,5.49
2018-03-08T01:46:03.555Z,5.69
2018-03-08T01:51:03.995Z,5.59
2018-03-08T01:56:03.221Z,5.49
2018-03-08T02:01:03.496Z,5.49
2018-03-08T02:06:03.930Z,5.39
2018-03-08T02:11:03.564Z,5.49
2018-03-08T02:16:03.841Z,5.49
2018-03-08T02:21:03.322Z,5.59
2018-03-08T02:26:03.529Z,5.59
2018-03-08T02:31:03.798Z,5.39
2018-03-08T02:36:03.281Z,5.59
2018-03-08T02:41:03.849Z,5.49
2018-03-08T02:46:04.122Z,5.49
2018-03-08T02:51:03.558Z,5.49
2018-03-08T02:56:03.804Z,5.39
2018-03-08T03:01:04.047Z,5.59
2018-03-08T03:06:03.534Z,5.59
2018-03-08T03:11:04.145Z,5.39
2018-03-08T03:16:03.403Z,5.39
2018-03-08T03:21:03.900Z,5.49
2018-03-08T03:26:04.114Z,5.49
2018-03-08T03:31:03.393Z,5.59
2018-03-08T03:36:03.826Z,5.39
2018-03-08T03:41:03.440Z,5.19
2018-03-08T03:46:03.692Z,5.39
2018-03-08T03:51:04.156Z,5.39
2018-03-08T03:56:04.776Z,5.29
2018-03-08T04:01:03.683Z,5.29
2018-03-08T04:06:04.080Z,5.29
2018-03-08T04:11:03.703Z,5.49
2018-03-08T04:16:03.977Z,5.39
2018-03-08T04:21:03.457Z,5.49
2018-03-08T04:26:04.980Z,5.39
2018-03-08T04:31:03.938Z,5.19
2018-03-08T04:36:03.389Z,5.19
2018-03-08T04:41:03.997Z,5.09
2018-03-08T04:46:03.269Z,4.99
2018-03-08T04:51:03.712Z,4.99
2018-03-08T04:56:03.954Z,5.09
2018-03-08T05:01:03.233Z,4.99
2018-03-08T05:06:03.671Z,4.79
2018-03-08T05:11:03.299Z,4.89
2018-03-08T05:16:03.549Z,4.59
2018-03-08T05:21:04.074Z,4.69
2018-03-08T05:26:03.969Z,4.49
2018-03-08T05:31:03.239Z,4.59
2018-03-08T05:36:03.763Z,4.39
2018-03-08T05:41:03.288Z,4.29
2018-03-08T05:46:03.555Z,4.19
2018-03-08T05:51:03.997Z,3.99
2018-03-08T05:56:03.243Z,4.09
2018-03-08T06:01:03.467Z,3.99
2018-03-08T06:06:03.947Z,4.09
2018-03-08T06:11:03.559Z,4.09
2018-03-08T06:16:03.849Z,4.09
2018-03-08T06:21:03.302Z,3.99
2018-03-08T06:26:03.521Z,3.79
2018-03-08T06:31:05.401Z,3.79
2018-03-08T06:36:03.281Z,3.89
2018-03-08T06:41:03.863Z,3.99
2018-03-08T06:46:04.133Z,4.09
2018-03-08T06:51:03.570Z,4.19
2018-03-08T06:56:03.790Z,4.09
2018-03-08T07:01:04.050Z,4.19
2018-03-08T07:06:03.533Z,4.29
2018-03-08T07:11:04.082Z,4.19
2018-03-08T07:16:03.371Z,4.29
2018-03-08T07:21:03.840Z,4.39
2018-03-08T07:26:04.071Z,4.49
2018-03-08T07:31:03.352Z,4.49
2018-03-08T07:36:03.805Z,4.69
2018-03-08T07:41:03.408Z,4.89
2018-03-08T07:46:03.665Z,4.99
2018-03-08T07:51:04.111Z,5.19
2018-03-08T07:56:03.358Z,5.09
2018-03-08T08:01:03.633Z,4.99
2018-03-08T08:06:04.054Z,5.19
2018-03-08T08:11:03.648Z,5.39
2018-03-08T08:16:03.946Z,5.69
2018-03-08T08:21:03.541Z,5.89
2018-03-08T08:26:03.602Z,6.19
2018-03-08T08:31:03.910Z,6.29
2018-03-08T08:36:03.326Z,6.39
2018-03-08T08:41:03.923Z,6.49
2018-03-08T08:46:03.215Z,6.49
2018-03-08T08:51:03.655Z,6.59
2018-03-08T08:56:03.891Z,6.69
2018-03-08T09:01:03.200Z,6.79
2018-03-08T09:06:03.619Z,6.79
2018-03-08T09:11:03.242Z,7.19
2018-03-08T09:16:03.480Z,7.19
2018-03-08T09:21:04.056Z,7.19
2018-03-08T09:26:03.239Z,7.39
2018-03-08T09:31:03.482Z,7.89
2018-03-08T09:36:03.981Z,7.89
2018-03-08T09:41:03.574Z,7.69
2018-03-08T09:46:03.866Z,7.79
2018-03-08T09:51:03.316Z,7.89
2018-03-08T09:56:03.522Z,7.89
2018-03-08T10:01:03.769Z,7.69
2018-03-08T10:06:03.291Z,7.69
2018-03-08T10:11:03.896Z,7.89
2018-03-08T10:16:03.169Z,7.99
2018-03-08T10:21:03.659Z,8.19
2018-03-08T10:26:03.835Z,8.29
2018-03-08T10:31:03.158Z,8.59
2018-03-08T10:36:03.589Z,8.79
2018-03-08T10:41:03.408Z,8.79
2018-03-08T10:46:03.490Z,8.69
2018-03-08T10:51:03.916Z,8.39
2018-03-08T10:56:03.178Z,8.49
2018-03-08T11:01:03.438Z,8.49
2018-03-08T11:06:03.863Z,8.49
2018-03-08T11:11:03.481Z,8.59
2018-03-08T11:16:03.758Z,8.69
2018-03-08T11:21:03.229Z,8.79
2018-03-08T11:26:03.499Z,8.89
2018-03-08T11:31:03.755Z,9.09
2018-03-08T11:36:04.208Z,8.99
2018-03-08T11:41:03.817Z,9.09
2018-03-08T11:46:04.072Z,8.89
2018-03-08T11:51:03.553Z,8.89
2018-03-08T11:56:03.785Z,8.89
2018-03-08T12:01:04.035Z,8.99
2018-03-08T12:06:03.497Z,8.99
2018-03-08T12:11:04.255Z,8.89
2018-03-08T12:16:03.354Z,8.89
2018-03-08T12:21:03.857Z,8.89
2018-03-08T12:26:04.083Z,8.89
2018-03-08T12:31:03.340Z,8.99
2018-03-08T12:36:03.799Z,9.09
2018-03-08T12:41:03.396Z,8.99
2018-03-08T12:46:03.667Z,8.79
2018-03-08T12:51:04.137Z,8.69
2018-03-08T12:56:03.554Z,8.39
2018-03-08T13:01:03.649Z,8.19
2018-03-08T13:06:04.117Z,8.19
2018-03-08T13:11:03.713Z,7.99
2018-03-08T13:16:03.962Z,7.99
2018-03-08T13:21:03.451Z,7.89
2018-03-08T13:26:03.673Z,7.79
2018-03-08T13:31:03.952Z,7.79
2018-03-08T13:36:03.400Z,7.69
2018-03-08T13:41:04.023Z,7.79
2018-03-08T13:46:03.307Z,7.79
2018-03-08T13:51:03.764Z,7.69
2018-03-08T13:56:03.972Z,7.59
2018-03-08T14:01:03.231Z,7.59
2018-03-08T14:06:03.732Z,7.59
2018-03-08T14:11:03.335Z,7.59
2018-03-08T14:16:03.592Z,7.59
2018-03-08T14:21:04.107Z,7.49
2018-03-08T14:26:03.962Z,7.49
2018-03-08T14:31:04.245Z,7.49
2018-03-08T14:36:04.687Z,7.49
2018-03-08T14:41:04.303Z,7.29
2018-03-08T14:46:04.585Z,7.39
2018-03-08T14:51:04.041Z,7.29
2018-03-08T14:56:04.279Z,7.19
2018-03-08T15:01:04.535Z,7.09
2018-03-08T15:06:03.976Z,7.09
2018-03-08T15:11:04.572Z,7.09
2018-03-08T15:16:03.927Z,7.09
2018-03-08T15:21:04.369Z,6.99
2018-03-08T15:26:04.574Z,6.99
2018-03-08T15:31:03.931Z,6.99
2018-03-08T15:36:04.328Z,6.99
2018-03-08T15:41:03.521Z,7.09
2018-03-08T15:46:03.797Z,7.09
2018-03-08T15:51:04.052Z,7.09
2018-03-08T15:56:03.748Z,7.09
2018-03-08T16:01:03.845Z,7.09
2018-03-08T16:06:05.001Z,7.09
2018-03-08T16:11:03.836Z,6.99
2018-03-08T16:16:04.017Z,6.89
2018-03-08T16:21:03.386Z,6.89
2018-03-08T16:26:03.566Z,6.79
2018-03-08T16:31:03.829Z,6.69
2018-03-08T16:36:03.338Z,6.69
2018-03-08T16:41:03.889Z,6.69
2018-03-08T16:46:03.167Z,6.59
2018-03-08T16:51:03.672Z,6.59
2018-03-08T16:56:03.837Z,6.59
2018-03-08T17:01:04.087Z,6.59
2018-03-08T17:06:03.563Z,6.49
2018-03-08T17:11:03.288Z,6.49
2018-03-08T17:16:03.702Z,6.49
2018-03-08T17:21:03.928Z,6.49
2018-03-08T17:26:03.198Z,6.29
2018-03-08T17:31:03.662Z,6.19
2018-03-08T17:36:04.053Z,6.19
2018-03-08T17:41:03.576Z,6.19
2018-03-08T17:46:03.780Z,5.89
2018-03-08T17:51:03.279Z,5.99
2018-03-08T17:56:03.645Z,5.89
2018-03-08T18:01:03.737Z,5.89
2018-03-08T18:06:04.229Z,5.69
2018-03-08T18:11:03.799Z,5.69
2018-03-08T18:16:04.108Z,5.59
2018-03-08T18:21:03.598Z,5.59
2018-03-08T18:26:04.135Z,5.59
2018-03-08T18:31:04.262Z,5.49
2018-03-08T18:36:03.742Z,5.39
2018-03-08T18:41:04.557Z,5.49
2018-03-08T18:46:03.375Z,5.39
2018-03-08T18:51:04.146Z,5.49
2018-03-08T18:56:04.171Z,5.49
2018-03-08T19:01:04.130Z,5.59
2018-03-08T19:06:04.013Z,5.59
2018-03-08T19:11:03.571Z,5.49
2018-03-08T19:16:03.623Z,5.59
2018-03-08T19:21:04.532Z,4.79
2018-03-08T19:26:03.495Z,4.19
2018-03-08T19:31:03.960Z,4.29
2018-03-08T19:36:04.746Z,4.59
2018-03-08T19:41:04.993Z,4.29
2018-03-08T19:46:03.992Z,4.29
2018-03-08T19:51:04.526Z,4.29
2018-03-08T19:56:04.935Z,4.69
2018-03-08T20:01:04.273Z,4.39
2018-03-08T20:06:04.357Z,4.39
2018-03-08T20:11:05.124Z,4.29
2018-03-08T20:41:03.067Z,4.59
2018-03-08T20:46:00.837Z,4.59
2018-03-08T20:51:01.450Z,4.49
2018-03-08T20:56:03.040Z,4.59
2018-03-08T21:01:01.673Z,4.59
2018-03-08T21:06:00.761Z,4.59
2018-03-08T21:11:01.366Z,4.69
2018-03-08T21:16:01.382Z,4.59
2018-03-08T21:21:00.658Z,4.59
2018-03-08T21:26:01.122Z,4.59
2018-03-08T21:31:00.697Z,4.49
2018-03-08T21:36:01.156Z,4.69
2018-03-08T21:41:00.676Z,4.69
2018-03-08T21:46:00.864Z,4.69
2018-03-08T21:51:01.181Z,4.69
2018-03-08T21:56:01.624Z,4.69
2018-03-08T22:01:01.576Z,4.59
2018-03-08T22:06:01.491Z,4.69
2018-03-08T22:11:00.935Z,4.59
2018-03-08T22:16:01.158Z,4.39
2018-03-08T22:21:01.452Z,4.49
2018-03-08T22:26:00.869Z,4.39
2018-03-08T22:31:01.480Z,4.49
2018-03-08T22:36:00.771Z,4.49
2018-03-08T22:41:01.255Z,4.39
2018-03-08T22:46:01.465Z,4.39
2018-03-08T22:51:00.732Z,4.39
2018-03-08T22:56:01.217Z,4.39
2018-03-08T23:01:00.753Z,4.39
2018-03-08T23:06:01.103Z,4.29
2018-03-08T23:11:01.488Z,4.29
2018-03-08T23:16:00.741Z,4.19
2018-03-08T23:21:02.189Z,4.29
